Ekimchan, Russia
Current Conditions -  °F | °C
As of 9:30 AM on Tuesday 21 Oct 2014 (Local Time) from UHBB Reporting Station
Clear Clear  
Wind Chill: 15°   Ceiling: Unl
Heat Index: 23°   Visibility: 6mi
Dew Point:   Wind: 7mph
Humidity: 36%   Direction: 310°NW
Pressure: 30.15"   Gusts: NA
Location:  53.07°N, 132.97°E
Report Text: UHBB 210030Z 31003MPS 210V020 CAVOK M05/M18 Q1021 TEMPO27007MPS RMK QFE748/0998 36090060
Loading
Personal Weather Stations






























Interactive Weather Map
Tropical Storm Tracking
New forecast layout! Learn more

10-Day Weather Forecast

Advertisements
Track Severe Weather on mobile